CheckWX is a tool to help pilots better visualize weather data.  It is not intended as a substitute for an official pre-flight weather briefing.

01:34:16 UTC

CWUW METAR
Dewar Lakes Airport
Canada
Current

34 mins ago

CWUW 200100Z AUTO 20009KT ////SM BKN009 07/06 A2968
Observed
Jul-20 @ 01:00 UTC
Wind
  • 200° at 9 KTS
Visibility
Cloud Levels
  • Broken at 900' AGL
Temperature
C / 45°F
Dewpoint
C / 43°F
Humidity
93%
Altimeter
29.68" Hg
Pressure
1005.12 hPa
Previous

1 hour ago

CWUW 200028Z AUTO 21011KT ////SM OVC009 08/06 A2967
Observed
Jul-20 @ 00:28 UTC
Wind
  • 210° at 11 KTS
Visibility
Cloud Levels
  • Overcast at 900' AGL
Temperature
C / 46°F
Dewpoint
C / 43°F
Humidity
87%
Altimeter
29.67" Hg
Pressure
1004.72 hPa
Previous

1 hour ago

CWUW 200016Z AUTO 20010KT ////SM OVC010 08/06 A2967
Observed
Jul-20 @ 00:16 UTC
Wind
  • 200° at 10 KTS
Visibility
Cloud Levels
  • Overcast at 1,000' AGL
Temperature
C / 46°F
Dewpoint
C / 43°F
Humidity
87%
Altimeter
29.67" Hg
Pressure
1004.72 hPa